createdAt,value
2019-05-12T00:00:39.852Z,67.20
2019-05-12T00:03:08.711Z,67.20
2019-05-12T00:05:49.289Z,67.00
2019-05-12T00:08:18.856Z,67.40
2019-05-12T00:10:47.921Z,66.70
2019-05-12T00:13:18.854Z,66.60
2019-05-12T00:15:48.787Z,66.60
2019-05-12T00:18:18.091Z,66.40
2019-05-12T00:20:47.685Z,66.30
2019-05-12T00:23:25.026Z,66.20
2019-05-12T00:25:52.504Z,66.10
2019-05-12T00:28:21.026Z,65.90
2019-05-12T00:30:51.246Z,65.90
2019-05-12T00:33:20.363Z,65.90
2019-05-12T00:35:49.500Z,65.70
2019-05-12T00:38:17.992Z,65.80
2019-05-12T00:40:47.897Z,65.80
2019-05-12T00:43:18.800Z,65.80
2019-05-12T00:45:48.210Z,65.90
2019-05-12T00:48:17.870Z,66.00
2019-05-12T00:50:48.510Z,66.00
2019-05-12T00:53:18.855Z,65.80
2019-05-12T00:55:47.745Z,65.80
2019-05-12T00:58:19.365Z,65.80
2019-05-12T01:00:48.257Z,65.70
2019-05-12T01:03:18.901Z,65.50
2019-05-12T01:05:48.564Z,65.50
2019-05-12T01:08:18.705Z,65.50
2019-05-12T01:10:49.060Z,65.40
2019-05-12T01:13:18.608Z,65.40
2019-05-12T01:16:04.781Z,65.40
2019-05-12T01:18:35.273Z,65.40
2019-05-12T01:21:04.742Z,65.40
2019-05-12T01:23:33.374Z,65.40
2019-05-12T01:26:02.784Z,65.50
2019-05-12T01:28:31.232Z,65.60
2019-05-12T01:31:03.277Z,65.80
2019-05-12T01:33:31.840Z,66.00
2019-05-12T01:36:00.377Z,66.10
2019-05-12T01:38:29.588Z,66.20
2019-05-12T01:40:58.513Z,66.30
2019-05-12T01:43:30.402Z,66.40
2019-05-12T01:45:59.055Z,66.30
2019-05-12T01:48:28.762Z,66.20
2019-05-12T01:51:02.246Z,66.20
2019-05-12T01:53:30.846Z,66.50
2019-05-12T01:55:59.372Z,66.30
2019-05-12T01:58:27.991Z,66.30
2019-05-12T02:00:58.968Z,66.50
2019-05-12T02:03:28.362Z,66.90
2019-05-12T02:05:58.776Z,67.20
2019-05-12T02:08:38.665Z,67.50
2019-05-12T02:11:25.334Z,67.90
2019-05-12T02:14:02.202Z,68.20
2019-05-12T02:16:32.331Z,68.80
2019-05-12T02:19:01.474Z,69.00
2019-05-12T02:21:30.807Z,69.30
2019-05-12T02:24:00.681Z,69.50
2019-05-12T02:26:29.421Z,69.70
2019-05-12T02:28:58.695Z,69.90
2019-05-12T02:31:29.546Z,70.10
2019-05-12T02:33:57.793Z,70.10
2019-05-12T02:36:26.273Z,70.30
2019-05-12T02:38:55.880Z,70.40
2019-05-12T02:41:45.152Z,70.40
2019-05-12T02:44:14.969Z,70.50
2019-05-12T02:46:44.637Z,70.40
2019-05-12T02:49:16.039Z,70.40
2019-05-12T02:51:46.051Z,70.30
2019-05-12T02:54:17.033Z,70.30
2019-05-12T02:56:47.640Z,70.40
2019-05-12T02:59:17.728Z,70.30
2019-05-12T03:01:55.050Z,70.40
2019-05-12T03:04:25.307Z,70.30
2019-05-12T03:07:02.346Z,70.30
2019-05-12T03:09:34.688Z,70.20
2019-05-12T03:12:05.851Z,70.20
2019-05-12T03:14:40.584Z,70.20
2019-05-12T03:17:05.940Z,70.20
2019-05-12T03:19:35.493Z,70.00
2019-05-12T03:22:05.819Z,70.10
2019-05-12T03:24:34.893Z,70.20
2019-05-12T03:27:04.810Z,70.30
2019-05-12T03:29:34.370Z,70.40
2019-05-12T03:32:08.268Z,70.30
2019-05-12T03:34:38.400Z,70.40
2019-05-12T03:37:08.174Z,70.50
2019-05-12T03:39:38.325Z,70.60
2019-05-12T03:42:08.161Z,70.60
2019-05-12T03:44:36.686Z,70.60
2019-05-12T03:47:05.659Z,70.60
2019-05-12T03:49:34.862Z,70.70
2019-05-12T03:52:05.005Z,70.50
2019-05-12T03:54:34.953Z,70.60
2019-05-12T03:57:04.592Z,70.60
2019-05-12T03:59:35.006Z,70.60
2019-05-12T04:02:04.983Z,70.60
2019-05-12T04:04:34.747Z,70.70
2019-05-12T04:07:05.164Z,70.50
2019-05-12T04:09:34.902Z,70.50
2019-05-12T04:12:05.243Z,70.50
2019-05-12T04:14:35.228Z,70.60
2019-05-12T04:17:06.125Z,70.60
2019-05-12T04:19:35.871Z,70.80
2019-05-12T04:22:06.175Z,70.80
2019-05-12T04:24:36.130Z,70.70
2019-05-12T04:27:10.732Z,70.80
2019-05-12T04:29:44.035Z,70.70
2019-05-12T04:32:14.194Z,70.60
2019-05-12T04:34:44.539Z,70.60
2019-05-12T04:37:14.766Z,70.60
2019-05-12T04:39:45.179Z,70.60
2019-05-12T04:42:14.869Z,70.60
2019-05-12T04:44:44.829Z,70.70
2019-05-12T04:47:14.822Z,71.50
2019-05-12T04:49:45.268Z,70.70
2019-05-12T04:52:15.608Z,70.60
2019-05-12T04:55:06.709Z,70.50
2019-05-12T04:57:35.194Z,70.50
2019-05-12T05:00:06.116Z,70.30
2019-05-12T05:02:36.594Z,70.40
2019-05-12T05:05:07.094Z,70.40
2019-05-12T05:07:36.098Z,70.30
2019-05-12T05:10:05.907Z,70.10
2019-05-12T05:12:34.684Z,69.50
2019-05-12T05:15:06.923Z,70.00
2019-05-12T05:17:35.399Z,70.00
2019-05-12T05:20:07.067Z,70.00
2019-05-12T05:22:38.050Z,70.30
2019-05-12T05:25:05.783Z,70.00
2019-05-12T05:27:34.339Z,69.90
2019-05-12T05:30:04.053Z,69.90
2019-05-12T05:32:33.882Z,69.90
2019-05-12T05:35:03.908Z,70.60
2019-05-12T05:37:36.948Z,69.70
2019-05-12T05:40:04.865Z,69.40
2019-05-12T05:42:35.584Z,69.30
2019-05-12T05:45:10.007Z,68.80
2019-05-12T05:47:36.224Z,68.60
2019-05-12T05:50:07.077Z,69.30
2019-05-12T05:52:38.645Z,68.10
2019-05-12T05:55:14.608Z,67.70
2019-05-12T05:57:36.807Z,67.30
2019-05-12T06:00:16.426Z,66.80
2019-05-12T06:02:40.374Z,66.70
2019-05-12T06:05:07.447Z,66.10
2019-05-12T06:07:39.186Z,65.90
2019-05-12T06:10:09.438Z,65.80
2019-05-12T06:12:40.437Z,65.70
2019-05-12T06:15:09.831Z,65.50
2019-05-12T06:17:39.088Z,65.50
2019-05-12T06:20:07.761Z,66.20
2019-05-12T06:22:36.532Z,65.50
2019-05-12T06:25:07.408Z,65.80
2019-05-12T06:27:36.172Z,66.10
2019-05-12T06:30:10.045Z,66.40
2019-05-12T06:32:41.311Z,66.60
2019-05-12T06:35:10.844Z,66.70
2019-05-12T06:37:39.306Z,66.60
2019-05-12T06:40:08.220Z,66.80
2019-05-12T06:42:36.979Z,66.70
2019-05-12T06:45:06.383Z,66.70
2019-05-12T06:47:39.254Z,66.50
2019-05-12T06:50:07.143Z,66.20
2019-05-12T06:52:38.618Z,66.00
2019-05-12T06:55:07.783Z,65.80
2019-05-12T06:57:39.991Z,65.80
2019-05-12T07:00:08.232Z,65.80
2019-05-12T07:02:49.019Z,65.30
2019-05-12T07:05:07.586Z,65.00
2019-05-12T07:07:42.077Z,64.20
2019-05-12T07:10:11.887Z,64.60
2019-05-12T07:12:54.086Z,63.50
2019-05-12T07:15:10.587Z,62.90
2019-05-12T07:17:53.369Z,62.30
2019-05-12T07:20:29.088Z,61.30
2019-05-12T07:22:54.990Z,61.60
2019-05-12T07:25:31.408Z,60.60
2019-05-12T07:28:00.703Z,60.50
2019-05-12T07:30:32.619Z,60.20
2019-05-12T07:33:04.397Z,59.30
2019-05-12T07:35:34.338Z,59.50
2019-05-12T07:38:06.601Z,59.40
2019-05-12T07:40:38.063Z,59.10
2019-05-12T07:43:09.990Z,58.80
2019-05-12T07:45:38.962Z,58.90
2019-05-12T07:48:10.156Z,59.40
2019-05-12T07:50:37.612Z,60.20
2019-05-12T07:53:07.885Z,60.30
2019-05-12T07:55:39.644Z,59.40
2019-05-12T07:58:13.848Z,59.70
2019-05-12T08:00:39.711Z,59.10
2019-05-12T08:03:16.038Z,58.80
2019-05-12T08:05:38.545Z,58.30
2019-05-12T08:08:10.910Z,58.40
2019-05-12T08:10:40.398Z,58.50
2019-05-12T08:13:09.128Z,58.90
2019-05-12T08:15:39.854Z,59.70
2019-05-12T08:18:08.281Z,60.30
2019-05-12T08:20:36.788Z,60.50
2019-05-12T08:23:10.103Z,60.40
2019-05-12T08:25:36.223Z,60.10
2019-05-12T08:28:15.011Z,59.80
2019-05-12T08:30:46.210Z,59.90
2019-05-12T08:33:09.849Z,60.00
2019-05-12T08:35:38.670Z,59.70
2019-05-12T08:38:07.922Z,59.00
2019-05-12T08:40:39.785Z,58.50
2019-05-12T08:43:10.248Z,58.30
2019-05-12T08:45:39.251Z,58.10
2019-05-12T08:48:10.107Z,57.90
2019-05-12T08:50:42.850Z,57.90
2019-05-12T08:53:20.689Z,57.50
2019-05-12T08:55:45.160Z,57.10
2019-05-12T08:58:29.705Z,57.00
2019-05-12T09:00:49.758Z,57.70
2019-05-12T09:03:15.432Z,57.30
2019-05-12T09:05:48.515Z,58.00
2019-05-12T09:08:18.583Z,58.10
2019-05-12T09:10:47.445Z,58.30
2019-05-12T09:13:18.686Z,57.80
2019-05-12T09:15:47.145Z,57.60
2019-05-12T09:18:18.643Z,57.30
2019-05-12T09:20:51.378Z,57.20
2019-05-12T09:23:17.501Z,57.30
2019-05-12T09:25:48.473Z,56.80
2019-05-12T09:28:18.552Z,55.90
2019-05-12T09:30:49.715Z,55.60
2019-05-12T09:33:21.504Z,54.90
2019-05-12T09:35:48.643Z,55.10
2019-05-12T09:38:21.818Z,56.80
2019-05-12T09:40:55.072Z,58.70
2019-05-12T09:43:19.464Z,60.20
2019-05-12T09:45:56.121Z,61.90
2019-05-12T09:48:24.532Z,63.00
2019-05-12T09:51:00.339Z,64.40
2019-05-12T09:53:23.735Z,65.30
2019-05-12T09:55:54.548Z,65.60
2019-05-12T09:58:27.646Z,66.00
2019-05-12T10:00:57.794Z,66.40
2019-05-12T10:03:30.717Z,65.90
2019-05-12T10:05:56.419Z,65.40
2019-05-12T10:08:29.198Z,65.30
2019-05-12T10:10:55.515Z,64.70
2019-05-12T10:13:28.167Z,64.50
2019-05-12T10:15:58.697Z,64.40
2019-05-12T10:18:51.275Z,64.10
2019-05-12T10:21:17.597Z,64.30
2019-05-12T10:23:51.486Z,63.90
2019-05-12T10:26:17.529Z,62.90
2019-05-12T10:28:52.151Z,62.00
2019-05-12T10:31:18.707Z,61.60
2019-05-12T10:33:49.109Z,59.70
2019-05-12T10:36:17.007Z,58.90
2019-05-12T10:38:46.394Z,58.50
2019-05-12T10:41:14.878Z,60.00
2019-05-12T10:43:53.149Z,61.40
2019-05-12T10:46:24.456Z,64.10
2019-05-12T10:48:53.925Z,65.20
2019-05-12T10:51:23.921Z,65.40
2019-05-12T10:53:59.908Z,66.00
2019-05-12T10:56:24.201Z,65.80
2019-05-12T10:58:53.632Z,66.30
2019-05-12T11:01:24.219Z,66.70
2019-05-12T11:03:52.543Z,66.80
2019-05-12T11:06:23.866Z,66.50
2019-05-12T11:08:53.710Z,64.90
2019-05-12T11:11:24.012Z,63.80
2019-05-12T11:13:53.815Z,63.70
2019-05-12T11:16:30.635Z,62.20
2019-05-12T11:18:54.306Z,61.60
2019-05-12T11:21:22.788Z,62.40
2019-05-12T11:23:54.368Z,61.60
2019-05-12T11:26:23.482Z,59.90
2019-05-12T11:28:53.253Z,58.50
2019-05-12T11:31:24.353Z,58.00
2019-05-12T11:33:54.139Z,58.00
2019-05-12T11:36:25.925Z,57.40
2019-05-12T11:38:54.455Z,56.00
2019-05-12T11:41:28.434Z,55.80
2019-05-12T11:43:56.390Z,54.90
2019-05-12T11:46:27.297Z,55.00
2019-05-12T11:48:57.839Z,54.40
2019-05-12T11:51:30.280Z,54.10
2019-05-12T11:53:56.685Z,54.30
2019-05-12T11:56:25.777Z,53.20
2019-05-12T11:58:54.358Z,52.90
2019-05-12T12:01:24.507Z,52.90
2019-05-12T12:03:54.746Z,52.60
2019-05-12T12:06:24.393Z,51.90
2019-05-12T12:08:54.092Z,50.80
2019-05-12T12:11:27.601Z,50.10
2019-05-12T12:13:53.548Z,49.50
2019-05-12T12:16:23.719Z,49.90
2019-05-12T12:19:02.317Z,49.40
2019-05-12T12:21:27.532Z,48.70
2019-05-12T12:23:56.256Z,48.60
2019-05-12T12:26:30.206Z,48.40
2019-05-12T12:28:56.633Z,47.60
2019-05-12T12:31:29.677Z,46.80
2019-05-12T12:33:56.823Z,47.80
2019-05-12T12:36:26.855Z,47.20
2019-05-12T12:38:55.318Z,46.80
2019-05-12T12:41:34.259Z,44.80
2019-05-12T12:43:54.160Z,44.10
2019-05-12T12:46:30.940Z,43.70
2019-05-12T12:49:00.157Z,43.80
2019-05-12T12:51:29.573Z,44.10
2019-05-12T12:53:58.058Z,43.60
2019-05-12T12:56:31.162Z,43.90
2019-05-12T12:59:04.100Z,43.40
2019-05-12T13:01:32.768Z,43.10
2019-05-12T13:04:04.770Z,42.80
2019-05-12T13:06:34.423Z,42.70
2019-05-12T13:09:17.004Z,43.30
2019-05-12T13:11:44.287Z,44.10
2019-05-12T13:14:13.461Z,43.70
2019-05-12T13:16:43.723Z,42.60
2019-05-12T13:19:16.883Z,41.80
2019-05-12T13:21:43.945Z,41.70
2019-05-12T13:24:12.468Z,41.50
2019-05-12T13:26:41.024Z,41.00
2019-05-12T13:29:09.813Z,41.50
2019-05-12T13:31:40.983Z,41.60
2019-05-12T13:34:08.592Z,41.70
2019-05-12T13:36:39.975Z,41.90
2019-05-12T13:39:11.587Z,41.70
2019-05-12T13:41:38.875Z,41.60
2019-05-12T13:44:07.318Z,41.30
2019-05-12T13:46:35.775Z,40.90
2019-05-12T13:49:06.145Z,40.80
2019-05-12T13:51:34.609Z,40.20
2019-05-12T13:54:03.880Z,39.40
2019-05-12T13:56:53.485Z,39.80
2019-05-12T13:59:25.262Z,40.00
2019-05-12T14:01:53.937Z,39.30
2019-05-12T14:04:27.705Z,39.10
2019-05-12T14:06:54.041Z,39.10
2019-05-12T14:09:23.855Z,39.10
2019-05-12T14:11:53.855Z,38.40
2019-05-12T14:14:23.802Z,38.00
2019-05-12T14:16:58.895Z,37.60
2019-05-12T14:19:23.414Z,37.90
2019-05-12T14:21:54.133Z,37.50
2019-05-12T14:24:23.312Z,36.50
2019-05-12T14:26:53.457Z,35.80
2019-05-12T14:29:26.706Z,34.30
2019-05-12T14:31:59.448Z,33.50
2019-05-12T14:34:23.646Z,33.80
2019-05-12T14:37:04.963Z,34.60
2019-05-12T14:39:23.977Z,34.20
2019-05-12T14:41:53.377Z,33.50
2019-05-12T14:44:23.720Z,33.50
2019-05-12T14:46:53.450Z,32.50
2019-05-12T14:49:28.533Z,31.90
2019-05-12T14:51:53.699Z,31.30
2019-05-12T14:54:23.925Z,31.80
2019-05-12T14:56:53.696Z,30.60
2019-05-12T14:59:24.440Z,30.50
2019-05-12T15:01:58.985Z,30.10
2019-05-12T15:04:27.871Z,30.80
2019-05-12T15:06:53.627Z,31.60
2019-05-12T15:09:24.560Z,32.00
2019-05-12T15:11:52.363Z,32.10
2019-05-12T15:14:24.514Z,31.30
2019-05-12T15:16:51.028Z,30.50
2019-05-12T15:19:20.862Z,30.50
2019-05-12T15:21:49.754Z,29.70
2019-05-12T15:24:20.794Z,29.30
2019-05-12T15:26:50.584Z,28.60
2019-05-12T15:29:23.450Z,28.10
2019-05-12T15:31:55.959Z,28.40
2019-05-12T15:34:23.704Z,27.70
2019-05-12T15:36:56.160Z,27.00
2019-05-12T15:39:23.143Z,26.80
2019-05-12T15:41:56.438Z,27.00
2019-05-12T15:44:30.467Z,27.00
2019-05-12T15:46:53.570Z,26.50
2019-05-12T15:49:25.946Z,27.10
2019-05-12T15:51:55.340Z,27.20
2019-05-12T15:54:22.974Z,27.20
2019-05-12T15:56:53.284Z,26.00
2019-05-12T15:59:23.912Z,26.20
2019-05-12T16:01:53.318Z,26.40
2019-05-12T16:04:22.117Z,26.10
2019-05-12T16:06:55.395Z,26.80
2019-05-12T16:09:20.836Z,26.50
2019-05-12T16:11:50.862Z,26.50
2019-05-12T16:14:19.446Z,26.70
2019-05-12T16:16:47.992Z,26.60
2019-05-12T16:19:16.550Z,26.20
2019-05-12T16:21:45.644Z,25.90
2019-05-12T16:24:15.636Z,26.10
2019-05-12T16:26:51.709Z,26.30
2019-05-12T16:29:14.611Z,26.60
2019-05-12T16:31:49.962Z,26.80
2019-05-12T16:34:18.750Z,26.10
2019-05-12T16:36:51.818Z,26.00
2019-05-12T16:39:17.537Z,25.90
2019-05-12T16:41:46.101Z,25.30
2019-05-12T16:44:22.561Z,25.90
2019-05-12T16:46:44.944Z,25.20
2019-05-12T16:49:13.973Z,25.50
2019-05-12T16:51:43.909Z,25.80
2019-05-12T16:54:12.443Z,26.50
2019-05-12T16:56:43.226Z,26.50
2019-05-12T16:59:16.941Z,26.40
2019-05-12T17:01:43.753Z,26.70
2019-05-12T17:04:13.778Z,26.70
2019-05-12T17:06:43.306Z,27.10
2019-05-12T17:09:13.488Z,27.30
2019-05-12T17:11:47.335Z,27.80
2019-05-12T17:14:12.511Z,28.70
2019-05-12T17:16:46.567Z,27.90
2019-05-12T17:19:15.452Z,27.80
2019-05-12T17:21:44.174Z,27.60
2019-05-12T17:24:14.638Z,27.90
2019-05-12T17:26:43.995Z,28.00
2019-05-12T17:29:13.709Z,27.90
2019-05-12T17:31:44.402Z,28.20
2019-05-12T17:34:14.292Z,27.80
2019-05-12T17:36:44.823Z,28.10
2019-05-12T17:39:16.440Z,28.10
2019-05-12T17:41:45.902Z,28.00
2019-05-12T17:44:14.480Z,28.30
2019-05-12T17:46:44.069Z,28.70
2019-05-12T17:49:16.028Z,29.10
2019-05-12T17:51:43.024Z,29.60
2019-05-12T17:54:15.744Z,30.50
2019-05-12T17:56:41.774Z,31.50
2019-05-12T17:59:14.886Z,32.70
2019-05-12T18:01:43.577Z,34.10
2019-05-12T18:04:14.037Z,35.40
2019-05-12T18:06:44.239Z,36.80
2019-05-12T18:09:19.585Z,37.70
2019-05-12T18:11:55.858Z,38.80
2019-05-12T18:14:27.761Z,39.10
2019-05-12T18:17:02.369Z,39.60
2019-05-12T18:19:26.599Z,40.20
2019-05-12T18:22:03.093Z,41.00
2019-05-12T18:24:26.577Z,41.60
2019-05-12T18:27:00.130Z,42.00
2019-05-12T18:29:26.373Z,42.60
2019-05-12T18:31:55.577Z,43.30
2019-05-12T18:34:25.322Z,43.90
2019-05-12T18:36:56.277Z,44.50
2019-05-12T18:39:24.445Z,45.10
2019-05-12T18:41:54.114Z,45.40
2019-05-12T18:44:31.218Z,45.60
2019-05-12T18:46:53.916Z,45.90
2019-05-12T18:49:23.871Z,46.80
2019-05-12T18:51:55.080Z,47.40
2019-05-12T18:54:24.286Z,48.00
2019-05-12T18:57:02.136Z,48.60
2019-05-12T18:59:23.188Z,49.40
2019-05-12T19:01:53.967Z,49.70
2019-05-12T19:04:21.928Z,50.30
2019-05-12T19:06:50.538Z,50.80
2019-05-12T19:09:19.037Z,51.30
2019-05-12T19:11:47.574Z,51.80
2019-05-12T19:14:16.390Z,52.20
2019-05-12T19:16:44.939Z,52.50
2019-05-12T19:19:16.656Z,53.00
2019-05-12T19:21:46.705Z,53.30
2019-05-12T19:24:19.553Z,53.80
2019-05-12T19:26:46.417Z,54.00
2019-05-12T19:29:14.340Z,54.50
2019-05-12T19:31:51.915Z,54.80
2019-05-12T19:34:19.864Z,55.20
2019-05-12T19:36:48.002Z,56.30
2019-05-12T19:39:13.705Z,56.10
2019-05-12T19:41:43.643Z,56.40
2019-05-12T19:44:13.419Z,56.70
2019-05-12T19:46:49.092Z,57.00
2019-05-12T19:49:15.041Z,57.30
2019-05-12T19:51:43.905Z,57.40
2019-05-12T19:54:14.024Z,57.70
2019-05-12T19:56:43.437Z,58.00
2019-05-12T19:59:14.641Z,58.30
2019-05-12T20:01:44.554Z,58.50
2019-05-12T20:04:14.138Z,58.70
2019-05-12T20:06:44.053Z,58.80
2019-05-12T20:09:14.682Z,59.00
2019-05-12T20:11:42.898Z,59.20
2019-05-12T20:14:16.631Z,59.40
2019-05-12T20:16:43.811Z,59.50
2019-05-12T20:19:13.559Z,59.60
2019-05-12T20:21:43.973Z,59.80
2019-05-12T20:24:14.354Z,59.90
2019-05-12T20:26:44.105Z,59.90
2019-05-12T20:29:13.802Z,60.10
2019-05-12T20:31:48.525Z,61.40
2019-05-12T20:34:14.499Z,60.70
2019-05-12T20:36:44.405Z,60.80
2019-05-12T20:39:19.320Z,61.10
2019-05-12T20:41:43.445Z,62.10
2019-05-12T20:44:18.931Z,61.40
2019-05-12T20:46:43.340Z,61.50
2019-05-12T20:49:14.698Z,61.70
2019-05-12T20:51:44.381Z,61.90
2019-05-12T20:54:17.884Z,62.10
2019-05-12T20:56:43.788Z,62.10
2019-05-12T20:59:18.980Z,62.40
2019-05-12T21:01:44.306Z,62.70
2019-05-12T21:04:14.255Z,63.10
2019-05-12T21:06:43.250Z,63.20
2019-05-12T21:09:14.167Z,63.30
2019-05-12T21:11:44.069Z,63.20
2019-05-12T21:14:14.899Z,63.30
2019-05-12T21:16:45.105Z,63.50
2019-05-12T21:19:14.359Z,63.70
2019-05-12T21:21:44.440Z,63.70
2019-05-12T21:24:13.999Z,63.70
2019-05-12T21:27:09.434Z,63.80
2019-05-12T21:29:36.337Z,64.00
2019-05-12T21:32:12.042Z,63.90
2019-05-12T21:34:35.081Z,64.10
2019-05-12T21:37:06.396Z,64.20
2019-05-12T21:39:40.611Z,64.30
2019-05-12T21:42:06.534Z,64.50
2019-05-12T21:44:35.004Z,64.70
2019-05-12T21:47:10.214Z,64.50
2019-05-12T21:49:34.600Z,64.90
2019-05-12T21:52:06.291Z,65.50
2019-05-12T21:54:36.178Z,65.20
2019-05-12T21:57:04.941Z,65.60
2019-05-12T21:59:35.366Z,65.90
2019-05-12T22:02:04.650Z,66.10
2019-05-12T22:04:41.250Z,66.50
2019-05-12T22:07:03.939Z,66.70
2019-05-12T22:09:41.513Z,67.00
2019-05-12T22:12:04.787Z,67.10
2019-05-12T22:14:36.571Z,67.40
2019-05-12T22:17:05.125Z,68.20
2019-05-12T22:19:37.626Z,67.50
2019-05-12T22:22:04.481Z,67.60
2019-05-12T22:24:34.579Z,67.70
2019-05-12T22:27:05.103Z,67.80
2019-05-12T22:29:34.281Z,68.00
2019-05-12T22:32:05.046Z,68.10
2019-05-12T22:34:37.341Z,68.20
2019-05-12T22:37:03.924Z,68.50
2019-05-12T22:39:34.176Z,68.50
2019-05-12T22:42:04.425Z,68.50
2019-05-12T22:44:34.777Z,68.50
2019-05-12T22:47:12.772Z,68.60
2019-05-12T22:49:34.534Z,68.60
2019-05-12T22:52:06.958Z,68.90
2019-05-12T22:54:33.730Z,69.10
2019-05-12T22:57:04.096Z,69.20
2019-05-12T22:59:40.270Z,69.30
2019-05-12T23:02:04.354Z,69.60
2019-05-12T23:04:38.726Z,69.80
2019-05-12T23:07:03.236Z,70.00
2019-05-12T23:09:33.725Z,70.10
2019-05-12T23:12:04.035Z,70.20
2019-05-12T23:14:34.006Z,70.30
2019-05-12T23:17:05.711Z,70.40
2019-05-12T23:19:34.178Z,70.50
2019-05-12T23:22:03.557Z,71.50
2019-05-12T23:24:39.428Z,70.90
2019-05-12T23:27:13.513Z,70.90
2019-05-12T23:29:41.544Z,71.20
2019-05-12T23:32:12.681Z,71.20
2019-05-12T23:34:53.083Z,71.20
2019-05-12T23:37:14.760Z,71.40
2019-05-12T23:39:44.218Z,71.70
2019-05-12T23:42:13.646Z,71.90
2019-05-12T23:44:44.196Z,72.10
2019-05-12T23:47:12.951Z,72.20
2019-05-12T23:49:44.251Z,72.20
2019-05-12T23:52:13.891Z,72.20
2019-05-12T23:54:44.330Z,72.30
2019-05-12T23:57:13.649Z,72.40
2019-05-12T23:59:42.490Z,72.50
